Pueblo Of Acoma, New Mexico
Current Conditions -  °F | °C
As of 9:37 AM on Monday 24 Nov 2014 (Local Time) from KGNT Reporting Station
Scattered Clouds Scattered Clouds  
Wind Chill: -6°   Ceiling: Unl
Heat Index: -2°   Visibility: 10mi
Dew Point: -16°   Wind: 7mph
Humidity: 34%   Direction: 340°NNW
Pressure: 30.21"   Gusts: NA
Location:  35.08°N, 107.6°W
Report Text: KGNT 241637Z AUTO 34006KT 10SM SCT100 M02/M16 A3021 RMK AO2
Loading
Personal Weather Stations






























Interactive Weather Map New forecast layout! Learn more

10-Day Weather Forecast

Advertisements
Track Severe Weather on mobile